SAWJ/ULA METAR and TAF weather

Enter ICAO airport designator
Station Type Date Time Source
SAWJ METAR 2019/08/14 12:05 UTC NOAA

SAWJ 141205Z 23018KT 1000 SN BKN020 00/M01 Q1020


Station Type Date Time Source
SAWJ Decoded METAR 2019/08/14 12:05 UTC NOAA

Station name not available
Aug 14, 2019 - 08:05 AM EDT / 2019.08.14 1205 UTC
Wind: from the SW (230 degrees) at 21 MPH (18 KT):0
Visibility: less than 1 mile:0
Sky conditions: mostly cloudy
Weather: snow
Temperature: 32 F (0 C)
Windchill: 19 F (-7 C):1
Dew Point: 30 F (-1 C)
Relative Humidity: 92%
Pressure (altimeter): 30.12 in. Hg (1020 hPa)
ob: SAWJ 141205Z 23018KT 1000 SN BKN020 00/M01 Q1020
cycle: 12

Station Type Date Time Source
SAWJ TAF 2014/06/25 12:00 UTC NOAA

TAF SAWJ 251100Z 2512/2612 32025G35KT 9999 -RA BKN030 BKN045 TX06/2518Z TN02/2611Z
BECMG 2518/2520 29020G30KT NSW SCT030
BECMG 2609/2611 23020G30KT SHSN OVC015

Example: see airport list